Time,TemperatureF,DewpointF,PressureIn,WindDirection,WindDirectionDegrees,WindSpeedMPH,WindSpeedGustMPH,Humidity,HourlyPrecipIn,Conditions,Clouds,dailyrainin,SolarRadiationWatts/m^2,SoftwareType,DateUTC
2013-02-11 00:11:00,60.0,40.0,-100.00,North,353,10.0,14.0,48,0.00,,,0.00,0.000000,,2013-02-11 10:11:00,
2013-02-11 00:21:00,60.0,40.0,-100.00,North,353,10.0,14.0,48,0.00,,,0.00,0.000000,,2013-02-11 10:21:00,
2013-02-11 00:31:00,60.0,40.0,-100.00,North,353,10.0,14.0,48,0.00,,,0.00,0.000000,,2013-02-11 10:31:00,
2013-02-11 00:41:00,60.0,40.0,-100.00,North,353,10.0,14.0,48,0.00,,,0.00,0.000000,,2013-02-11 10:41:00,
2013-02-11 01:11:00,62.0,46.0,-100.00,NNE,12,7.0,15.0,55,0.00,,,0.00,0.000000,,2013-02-11 11:11:00,
2013-02-11 01:22:00,62.0,46.0,-100.00,NNE,12,7.0,15.0,55,0.00,,,0.00,0.000000,,2013-02-11 11:22:00,
2013-02-11 01:32:00,62.0,46.0,-100.00,NNE,12,7.0,15.0,55,0.00,,,0.00,0.000000,,2013-02-11 11:32:00,
2013-02-11 01:42:00,62.0,46.0,-100.00,NNE,12,7.0,15.0,55,0.00,,,0.00,0.000000,,2013-02-11 11:42:00,
2013-02-11 02:12:00,62.0,44.0,-100.00,North,354,8.0,14.0,51,0.00,,,0.00,0.000000,,2013-02-11 12:12:00,
2013-02-11 02:22:00,62.0,44.0,-100.00,North,354,8.0,14.0,51,0.00,,,0.00,0.000000,,2013-02-11 12:22:00,
2013-02-11 02:31:00,62.0,44.0,-100.00,North,354,8.0,14.0,51,0.00,,,0.00,0.000000,,2013-02-11 12:31:00,
2013-02-11 02:42:00,62.0,44.0,-100.00,North,354,8.0,14.0,51,0.00,,,0.00,0.000000,,2013-02-11 12:42:00,
2013-02-11 03:11:00,58.0,47.0,-100.00,North,0,5.0,20.0,67,0.00,,,-99.99,0.000000,,2013-02-11 13:11:00,
2013-02-11 03:21:00,58.0,47.0,-100.00,North,0,5.0,20.0,67,0.00,,,-99.99,0.000000,,2013-02-11 13:21:00,
2013-02-11 03:32:00,58.0,47.0,-100.00,North,0,5.0,20.0,67,0.00,,,-99.99,0.000000,,2013-02-11 13:32:00,
2013-02-11 03:41:00,58.0,47.0,-100.00,North,0,5.0,20.0,67,0.00,,,-99.99,0.000000,,2013-02-11 13:41:00,
2013-02-11 04:11:00,61.0,49.0,-100.00,NNE,25,6.0,10.0,64,0.00,,,-99.99,0.000000,,2013-02-11 14:11:00,
2013-02-11 04:21:00,61.0,49.0,-100.00,NNE,25,6.0,10.0,64,0.00,,,-99.99,0.000000,,2013-02-11 14:21:00,
2013-02-11 04:32:00,61.0,49.0,-100.00,NNE,25,6.0,10.0,64,0.00,,,-99.99,0.000000,,2013-02-11 14:32:00,
2013-02-11 04:41:00,61.0,49.0,-100.00,NNE,25,6.0,10.0,64,0.00,,,-99.99,0.000000,,2013-02-11 14:41:00,
2013-02-11 05:11:00,55.0,47.0,-100.00,NNW,343,7.0,11.0,74,0.00,,,0.00,0.000000,,2013-02-11 15:11:00,
2013-02-11 05:22:00,55.0,47.0,-100.00,NNW,343,7.0,11.0,74,0.00,,,0.00,0.000000,,2013-02-11 15:22:00,
2013-02-11 05:32:00,55.0,47.0,-100.00,NNW,343,7.0,11.0,74,0.00,,,0.00,0.000000,,2013-02-11 15:32:00,
2013-02-11 05:42:00,55.0,47.0,-100.00,NNW,343,7.0,11.0,74,0.00,,,0.00,0.000000,,2013-02-11 15:42:00,
2013-02-11 06:01:00,56.0,46.0,-100.00,NNW,344,6.0,10.0,68,0.00,,,0.00,0.000000,,2013-02-11 16:01:00,
2013-02-11 06:11:00,56.0,46.0,-100.00,NNW,344,6.0,10.0,68,0.00,,,0.00,0.000000,,2013-02-11 16:11:00,
2013-02-11 06:21:00,56.0,46.0,-100.00,NNW,344,6.0,10.0,68,0.00,,,0.00,0.000000,,2013-02-11 16:21:00,
2013-02-11 06:31:00,56.0,46.0,-100.00,NNW,344,6.0,10.0,68,0.00,,,0.00,0.000000,,2013-02-11 16:31:00,
2013-02-11 06:42:00,56.0,46.0,-100.00,NNW,344,6.0,10.0,68,0.00,,,0.00,0.000000,,2013-02-11 16:42:00,
2013-02-11 07:11:00,53.0,45.0,-100.00,NNW,348,4.0,9.0,73,0.00,,,0.00,0.000000,,2013-02-11 17:11:00,
2013-02-11 07:21:00,53.0,45.0,-100.00,NNW,348,4.0,9.0,73,0.00,,,0.00,0.000000,,2013-02-11 17:21:00,
2013-02-11 07:32:00,53.0,45.0,-100.00,NNW,348,4.0,9.0,73,0.00,,,0.00,0.000000,,2013-02-11 17:32:00,
2013-02-11 07:41:00,53.0,45.0,-100.00,NNW,348,4.0,9.0,73,0.00,,,0.00,0.000000,,2013-02-11 17:41:00,
2013-02-11 08:11:00,62.0,48.0,-100.00,NNW,347,4.0,10.0,61,0.00,,,0.00,61.000000,,2013-02-11 18:11:00,
2013-02-11 08:21:00,62.0,48.0,-100.00,NNW,347,4.0,10.0,61,0.00,,,0.00,61.000000,,2013-02-11 18:21:00,
2013-02-11 08:32:00,62.0,48.0,-100.00,NNW,347,4.0,10.0,61,0.00,,,0.00,61.000000,,2013-02-11 18:32:00,
2013-02-11 08:41:00,62.0,48.0,-100.00,NNW,347,4.0,10.0,61,0.00,,,0.00,61.000000,,2013-02-11 18:41:00,
2013-02-11 09:11:00,70.0,49.0,-100.00,SSW,200,5.0,7.0,48,0.00,,,0.00,283.000000,,2013-02-11 19:11:00,
2013-02-11 09:21:00,70.0,49.0,-100.00,SSW,200,5.0,7.0,48,0.00,,,0.00,283.000000,,2013-02-11 19:21:00,
2013-02-11 09:31:00,70.0,49.0,-100.00,SSW,200,5.0,7.0,48,0.00,,,0.00,283.000000,,2013-02-11 19:31:00,
2013-02-11 09:41:00,70.0,49.0,-100.00,SSW,200,5.0,7.0,48,0.00,,,0.00,283.000000,,2013-02-11 19:41:00,
2013-02-11 10:11:00,72.0,57.0,-100.00,WSW,245,7.0,13.0,59,0.00,,,0.00,502.000000,,2013-02-11 20:11:00,
2013-02-11 10:21:00,72.0,57.0,-100.00,WSW,245,7.0,13.0,59,0.00,,,0.00,502.000000,,2013-02-11 20:21:00,
2013-02-11 10:31:00,72.0,57.0,-100.00,WSW,245,7.0,13.0,59,0.00,,,0.00,502.000000,,2013-02-11 20:31:00,
2013-02-11 10:41:00,72.0,57.0,-100.00,WSW,245,7.0,13.0,59,0.00,,,0.00,502.000000,,2013-02-11 20:41:00,
2013-02-11 11:11:00,75.0,50.0,-100.00,SSE,154,9.0,16.0,42,0.00,,,0.00,684.000000,,2013-02-11 21:11:00,
2013-02-11 11:21:00,75.0,50.0,-100.00,SSE,154,9.0,16.0,42,0.00,,,0.00,684.000000,,2013-02-11 21:21:00,
2013-02-11 11:31:00,75.0,50.0,-100.00,SSE,154,9.0,16.0,42,0.00,,,0.00,684.000000,,2013-02-11 21:31:00,
2013-02-11 11:41:00,75.0,50.0,-100.00,SSE,154,9.0,16.0,42,0.00,,,0.00,684.000000,,2013-02-11 21:41:00,
2013-02-11 12:11:00,74.0,56.0,-100.00,SE,146,9.0,16.0,53,0.00,,,0.00,815.000000,,2013-02-11 22:11:00,
2013-02-11 12:21:00,74.0,56.0,-100.00,SE,146,9.0,16.0,53,0.00,,,0.00,815.000000,,2013-02-11 22:21:00,
2013-02-11 12:31:00,74.0,56.0,-100.00,SE,146,9.0,16.0,53,0.00,,,0.00,815.000000,,2013-02-11 22:31:00,
2013-02-11 12:41:00,74.0,56.0,-100.00,SE,146,9.0,16.0,53,0.00,,,0.00,815.000000,,2013-02-11 22:41:00,
2013-02-11 13:11:00,75.0,56.0,-100.00,SE,134,8.0,20.0,52,0.00,,,0.00,876.000000,,2013-02-11 23:11:00,
2013-02-11 13:21:00,75.0,56.0,-100.00,SE,134,8.0,20.0,52,0.00,,,0.00,876.000000,,2013-02-11 23:21:00,
2013-02-11 13:31:00,75.0,56.0,-100.00,SE,134,8.0,20.0,52,0.00,,,0.00,876.000000,,2013-02-11 23:31:00,
2013-02-11 13:41:00,75.0,56.0,-100.00,SE,134,8.0,20.0,52,0.00,,,0.00,876.000000,,2013-02-11 23:41:00,
2013-02-11 14:11:00,72.0,58.0,-100.00,South,180,7.0,18.0,61,0.00,,,0.00,704.000000,,2013-02-12 00:11:00,
2013-02-11 14:21:00,72.0,58.0,-100.00,South,180,7.0,18.0,61,0.00,,,0.00,704.000000,,2013-02-12 00:21:00,
2013-02-11 14:31:00,72.0,58.0,-100.00,South,180,7.0,18.0,61,0.00,,,0.00,704.000000,,2013-02-12 00:31:00,
2013-02-11 14:41:00,72.0,58.0,-100.00,South,180,7.0,18.0,61,0.00,,,0.00,704.000000,,2013-02-12 00:41:00,
2013-02-11 16:11:00,73.0,60.0,-100.00,SW,236,10.0,18.0,64,-99.99,,,-99.99,583.000000,,2013-02-12 02:11:00,
2013-02-11 16:21:00,73.0,60.0,-100.00,SW,236,10.0,18.0,64,-99.99,,,-99.99,583.000000,,2013-02-12 02:21:00,
2013-02-11 16:31:00,73.0,60.0,-100.00,SW,236,10.0,18.0,64,-99.99,,,-99.99,583.000000,,2013-02-12 02:31:00,
2013-02-11 16:41:00,73.0,60.0,-100.00,SW,236,10.0,18.0,64,-99.99,,,-99.99,583.000000,,2013-02-12 02:41:00,
2013-02-11 18:11:00,67.0,58.0,-100.00,SW,226,3.0,17.0,74,-99.99,,,0.00,133.000000,,2013-02-12 04:11:00,
2013-02-11 18:21:00,67.0,58.0,-100.00,SW,226,3.0,17.0,74,-99.99,,,0.00,133.000000,,2013-02-12 04:21:00,
2013-02-11 18:31:00,67.0,58.0,-100.00,SW,226,3.0,17.0,74,-99.99,,,0.00,133.000000,,2013-02-12 04:31:00,
2013-02-11 18:41:00,67.0,58.0,-100.00,SW,226,3.0,17.0,74,-99.99,,,0.00,133.000000,,2013-02-12 04:41:00,
2013-02-11 19:11:00,63.0,57.0,-100.00,NNE,20,1.0,5.0,81,0.00,,,0.00,9.000000,,2013-02-12 05:11:00,
2013-02-11 19:21:00,63.0,57.0,-100.00,NNE,20,1.0,5.0,81,0.00,,,0.00,9.000000,,2013-02-12 05:21:00,
2013-02-11 19:31:00,63.0,57.0,-100.00,NNE,20,1.0,5.0,81,0.00,,,0.00,9.000000,,2013-02-12 05:31:00,
2013-02-11 19:41:00,63.0,57.0,-100.00,NNE,20,1.0,5.0,81,0.00,,,0.00,9.000000,,2013-02-12 05:41:00,
2013-02-11 20:12:00,59.0,55.0,-100.00,NW,325,5.0,7.0,86,0.00,,,0.00,0.000000,,2013-02-12 06:12:00,
2013-02-11 20:21:00,59.0,55.0,-100.00,NW,325,5.0,7.0,86,0.00,,,0.00,0.000000,,2013-02-12 06:21:00,
2013-02-11 20:31:00,59.0,55.0,-100.00,NW,325,5.0,7.0,86,0.00,,,0.00,0.000000,,2013-02-12 06:31:00,
2013-02-11 20:42:00,59.0,55.0,-100.00,NW,325,5.0,7.0,86,0.00,,,0.00,0.000000,,2013-02-12 06:42:00,
2013-02-11 21:11:00,59.0,55.0,-100.00,NNW,332,6.0,8.0,88,0.00,,,0.00,0.000000,,2013-02-12 07:11:00,
2013-02-11 21:21:00,59.0,55.0,-100.00,NNW,332,6.0,8.0,88,0.00,,,0.00,0.000000,,2013-02-12 07:21:00,
2013-02-11 21:31:00,59.0,55.0,-100.00,NNW,332,6.0,8.0,88,0.00,,,0.00,0.000000,,2013-02-12 07:31:00,
2013-02-11 21:41:00,59.0,55.0,-100.00,NNW,332,6.0,8.0,88,0.00,,,0.00,0.000000,,2013-02-12 07:41:00,
2013-02-11 22:11:00,58.0,54.0,-100.00,NNE,13,4.0,8.0,86,0.00,,,0.00,0.000000,,2013-02-12 08:11:00,
2013-02-11 22:21:00,58.0,54.0,-100.00,NNE,13,4.0,8.0,86,0.00,,,0.00,0.000000,,2013-02-12 08:21:00,
2013-02-11 22:31:00,58.0,54.0,-100.00,NNE,13,4.0,8.0,86,0.00,,,0.00,0.000000,,2013-02-12 08:31:00,
2013-02-11 22:41:00,58.0,54.0,-100.00,NNE,13,4.0,8.0,86,0.00,,,0.00,0.000000,,2013-02-12 08:41:00,
2013-02-11 23:11:00,56.0,52.0,-100.00,NNW,344,3.0,6.0,87,0.00,,,0.00,0.000000,,2013-02-12 09:11:00,
2013-02-11 23:21:00,56.0,52.0,-100.00,NNW,344,3.0,6.0,87,0.00,,,0.00,0.000000,,2013-02-12 09:21:00,
2013-02-11 23:31:00,56.0,52.0,-100.00,NNW,344,3.0,6.0,87,0.00,,,0.00,0.000000,,2013-02-12 09:31:00,
2013-02-11 23:41:00,56.0,52.0,-100.00,NNW,344,3.0,6.0,87,0.00,,,0.00,0.000000,,2013-02-12 09:41:00,